Time;durP1;ratioP1;P1;durP2;ratioP2;P2;SDS_P1;SDS_P2;PMS_P1;PMS_P2;Temp;Humidity;BMP_temperature;BMP_pressure;BME280_temperature;BME280_humidity;BME280_pressure;Samples;Min_cycle;Max_cycle;Signal;HPM_P1;HPM_P2
2023/08/05 00:00:02;;;;;;;;;;;;;;;32.28;33.41;97677.25;5072192;27;19920;-89
2023/08/05 00:02:28;;;;;;;;;;;;;;;32.44;33.13;97668.88;5072148;28;20308;-89
2023/08/05 00:04:54;;;;;;;;;;;;;;;32.68;32.72;97671.47;5072392;27;20019;-89
2023/08/05 00:07:20;;;;;;;;;;;;;;;32.94;32.20;97672.22;5073187;27;19917;-88
2023/08/05 00:09:46;;;;;;;;;;;;;;;32.04;34.31;97669.72;5075363;28;19952;-89
2023/08/05 00:12:12;;;;;;;;;;;;;;;32.33;33.07;97668.75;5074151;28;20301;-89
2023/08/05 00:14:38;;;;;;;;;;;;;;;32.34;33.44;97653.28;5073362;28;19964;-89
2023/08/05 00:17:04;;;;;;;;;;;;;;;32.44;32.97;97631.16;5054301;28;19959;-89
2023/08/05 00:19:30;;;;;;;;;;;;;;;32.51;32.80;97622.22;5054105;27;19923;-89
2023/08/05 00:21:56;;;;;;;;;;;;;;;32.45;32.84;97627.00;5072094;27;19917;-89
2023/08/05 00:24:22;;;;;;;;;;;;;;;32.43;33.30;97624.69;5072195;27;19916;-89
2023/08/05 00:26:48;;;;;;;;;;;;;;;32.50;32.80;97620.63;5071805;27;19916;-89
2023/08/05 00:29:14;;;;;;;;;;;;;;;32.45;33.19;97615.66;5084327;27;19923;-89
2023/08/05 00:31:40;;;;;;;;;;;;;;;32.33;33.00;97611.13;5087722;28;19924;-88
2023/08/05 00:34:06;;;;;;;;;;;;;;;32.42;33.30;97617.44;5071885;27;19926;-89
2023/08/05 00:36:32;;;;;;;;;;;;;;;32.46;33.07;97625.75;5071921;27;19927;-89
2023/08/05 00:38:58;;;;;;;;;;;;;;;32.64;32.91;97625.41;5071920;27;19920;-89
2023/08/05 00:41:24;;;;;;;;;;;;;;;33.07;31.88;97623.47;5070920;27;20388;-89
2023/08/05 00:43:50;;;;;;;;;;;;;;;32.50;32.45;97621.44;5053550;28;20412;-89
2023/08/05 00:46:18;;;;;;;;;;;;;;;32.51;32.60;97610.84;5053609;28;20007;-89
2023/08/05 00:48:44;;;;;;;;;;;;;;;31.06;35.41;97604.63;5072356;28;19952;-89
2023/08/05 00:51:10;;;;;;;;;;;;;;;30.63;36.15;97603.41;5053613;28;20296;-89
2023/08/05 00:53:37;;;;;;;;;;;;;;;31.18;35.06;97609.94;5071531;27;20365;-89
2023/08/05 00:56:03;;;;;;;;;;;;;;;31.74;34.46;97602.97;5074235;27;20485;-89
2023/08/05 00:58:31;;;;;;;;;;;;;;;32.11;33.63;97610.91;5091750;27;19924;-89
2023/08/05 01:00:57;;;;;;;;;;;;;;;32.44;32.98;97603.50;5198063;27;19921;-89
2023/08/05 01:03:23;;;;;;;;;;;;;;;32.59;32.45;97606.25;5107046;27;19920;-88
2023/08/05 01:05:50;;;;;;;;;;;;;;;32.71;32.61;97620.06;5085931;28;19917;-89
2023/08/05 01:08:18;;;;;;;;;;;;;;;32.66;32.77;97631.38;5053344;28;20362;-89
2023/08/05 01:10:44;;;;;;;;;;;;;;;32.86;32.54;97642.66;5071168;28;19916;-89
2023/08/05 01:13:10;;;;;;;;;;;;;;;33.00;31.98;97650.25;5052874;28;19970;-89
2023/08/05 01:15:36;;;;;;;;;;;;;;;33.03;32.16;97643.59;5071220;27;19916;-89
2023/08/05 01:18:04;;;;;;;;;;;;;;;33.04;31.69;97633.78;5071192;27;19979;-89
2023/08/05 01:20:37;;;;;;;;;;;;;;;33.07;31.88;97632.75;5071242;27;19920;-89
2023/08/05 01:23:07;;;;;;;;;;;;;;;33.15;31.37;97633.09;5071604;27;19920;-89
2023/08/05 01:25:34;;;;;;;;;;;;;;;33.28;31.36;97639.13;5070990;28;19920;-89
2023/08/05 01:28:01;;;;;;;;;;;;;;;33.07;32.00;97646.22;5070402;28;19920;-89
2023/08/05 01:30:28;;;;;;;;;;;;;;;33.35;31.57;97650.03;5071026;27;19917;-89
2023/08/05 01:32:55;;;;;;;;;;;;;;;33.64;31.02;97648.94;5070900;27;20354;-89
2023/08/05 01:35:21;;;;;;;;;;;;;;;33.41;31.53;97639.47;5070997;27;19923;-89
2023/08/05 01:37:48;;;;;;;;;;;;;;;32.63;33.06;97629.53;5071002;28;19916;-90
2023/08/05 01:40:14;;;;;;;;;;;;;;;32.42;33.61;97631.63;5078060;27;19920;-91
2023/08/05 01:42:40;;;;;;;;;;;;;;;31.80;35.34;97631.44;5090819;28;19924;-92
2023/08/05 01:45:06;;;;;;;;;;;;;;;32.13;35.42;97626.19;5091037;28;20008;-93
2023/08/05 01:47:32;;;;;;;;;;;;;;;32.48;35.26;97629.66;5090998;27;19925;-93
2023/08/05 01:49:58;;;;;;;;;;;;;;;32.30;35.25;97627.13;5084726;28;19968;-92
2023/08/05 01:52:24;;;;;;;;;;;;;;;32.63;34.68;97615.31;5070710;28;19916;-92
2023/08/05 01:54:50;;;;;;;;;;;;;;;32.39;35.23;97617.66;5070684;28;20262;-93
2023/08/05 01:57:16;;;;;;;;;;;;;;;32.62;34.47;97608.88;5070961;28;20280;-93
2023/08/05 01:59:42;;;;;;;;;;;;;;;32.94;34.87;97612.47;5070565;27;19956;-92
2023/08/05 02:02:08;;;;;;;;;;;;;;;33.35;33.96;97624.44;5070859;27;19917;-92
2023/08/05 02:04:34;;;;;;;;;;;;;;;33.59;33.73;97624.03;5070583;27;19924;-93
2023/08/05 02:07:00;;;;;;;;;;;;;;;33.72;33.55;97628.00;5070465;27;19921;-93
2023/08/05 02:09:26;;;;;;;;;;;;;;;33.76;33.18;97639.16;5070715;28;19917;-93
2023/08/05 02:11:52;;;;;;;;;;;;;;;33.81;32.84;97636.34;5069939;27;19973;-94
2023/08/05 02:14:18;;;;;;;;;;;;;;;33.67;32.85;97628.75;5071067;27;19920;-94
2023/08/05 02:16:44;;;;;;;;;;;;;;;33.40;33.62;97632.97;5070507;27;20421;-94
2023/08/05 02:19:10;;;;;;;;;;;;;;;33.50;33.66;97632.78;5070440;27;20373;-94
2023/08/05 02:21:36;;;;;;;;;;;;;;;33.32;33.93;97629.06;5070507;27;20003;-93
2023/08/05 02:24:03;;;;;;;;;;;;;;;33.06;34.16;97633.28;5070483;27;19952;-93
2023/08/05 02:26:29;;;;;;;;;;;;;;;32.54;35.26;97624.81;5069859;28;19968;-93
2023/08/05 02:28:55;;;;;;;;;;;;;;;32.17;35.49;97632.41;5080330;28;19916;-93
2023/08/05 02:31:21;;;;;;;;;;;;;;;32.01;36.01;97638.69;5080420;28;19935;-93
2023/08/05 02:33:47;;;;;;;;;;;;;;;32.15;35.61;97634.19;5070192;27;19921;-93
2023/08/05 02:36:13;;;;;;;;;;;;;;;32.64;34.54;97619.72;5052462;28;19928;-93
2023/08/05 02:38:39;;;;;;;;;;;;;;;32.73;34.52;97616.69;5070213;27;19912;-93
2023/08/05 02:41:06;;;;;;;;;;;;;;;32.35;35.10;97625.66;5069791;27;19931;-93
2023/08/05 02:43:32;;;;;;;;;;;;;;;31.05;38.37;97608.72;5069970;28;19917;-93
2023/08/05 02:45:58;;;;;;;;;;;;;;;29.70;40.45;97608.81;5070187;28;19975;-94
2023/08/05 02:48:25;;;;;;;;;;;;;;;29.49;41.07;97604.28;5075556;28;19917;-93
2023/08/05 02:50:51;;;;;;;;;;;;;;;30.07;39.57;97601.59;5069881;28;20003;-92
2023/08/05 02:53:18;;;;;;;;;;;;;;;30.14;39.60;97589.91;5069951;28;19916;-92
2023/08/05 02:55:44;;;;;;;;;;;;;;;29.83;40.59;97598.84;5069640;28;20034;-91
2023/08/05 02:58:10;;;;;;;;;;;;;;;30.41;39.09;97608.69;5069799;27;20012;-91
2023/08/05 03:00:36;;;;;;;;;;;;;;;30.62;39.05;97602.59;5069762;28;19917;-90
2023/08/05 03:03:02;;;;;;;;;;;;;;;31.28;37.89;97607.75;5069804;28;19921;-90
2023/08/05 03:05:28;;;;;;;;;;;;;;;31.07;38.11;97609.78;5072845;28;19923;-91
2023/08/05 03:07:55;;;;;;;;;;;;;;;31.46;36.74;97641.56;5073314;27;19916;-91
2023/08/05 03:10:21;;;;;;;;;;;;;;;31.97;35.82;97690.03;5072983;27;19917;-90
2023/08/05 03:12:47;;;;;;;;;;;;;;;32.41;35.79;97745.84;5073057;27;19932;-91
2023/08/05 03:15:13;;;;;;;;;;;;;;;32.66;35.31;97813.34;5073146;27;19921;-90
2023/08/05 03:17:39;;;;;;;;;;;;;;;32.45;35.10;97831.66;5073037;27;20338;-90
2023/08/05 03:20:06;;;;;;;;;;;;;;;31.63;36.86;97776.00;5073110;27;19945;-90
2023/08/05 03:22:32;;;;;;;;;;;;;;;31.03;38.30;97691.47;5073620;27;19948;-90
2023/08/05 03:25:01;;;;;;;;;;;;;;;30.41;39.87;97671.03;5072735;28;20370;-90
2023/08/05 03:27:27;;;;;;;;;;;;;;;27.36;48.50;97671.81;5073111;27;20074;-90
2023/08/05 03:29:53;;;;;;;;;;;;;;;26.89;50.75;97658.03;5091217;27;19920;-91
2023/08/05 03:32:19;;;;;;;;;;;;;;;27.93;46.09;97630.69;5093191;28;19952;-90
2023/08/05 03:34:45;;;;;;;;;;;;;;;27.67;47.45;97655.59;5093073;28;19938;-89
2023/08/05 03:37:11;;;;;;;;;;;;;;;28.80;44.22;97681.56;5093093;28;19920;-88
2023/08/05 03:39:37;;;;;;;;;;;;;;;29.83;41.79;97705.59;5080695;28;19945;-88
2023/08/05 03:42:03;;;;;;;;;;;;;;;28.81;44.70;97728.34;5072628;27;20065;-87
2023/08/05 03:44:29;;;;;;;;;;;;;;;29.18;44.01;97738.31;5072614;27;19912;-88
2023/08/05 03:46:55;;;;;;;;;;;;;;;30.07;42.46;97760.97;5072415;28;20034;-87
2023/08/05 03:49:21;;;;;;;;;;;;;;;30.81;40.98;97761.91;5072765;27;19924;-87
2023/08/05 03:51:47;;;;;;;;;;;;;;;31.40;39.58;97742.84;5072277;28;19921;-85
2023/08/05 03:54:13;;;;;;;;;;;;;;;31.49;38.86;97722.09;5072554;28;20030;-84
2023/08/05 03:56:39;;;;;;;;;;;;;;;31.13;38.70;97729.00;5073029;28;19919;-84
2023/08/05 03:59:05;;;;;;;;;;;;;;;28.10;46.77;97701.75;5072285;28;20369;-86
2023/08/05 04:01:32;;;;;;;;;;;;;;;28.30;45.94;97719.78;5072473;27;19924;-85
2023/08/05 04:03:58;;;;;;;;;;;;;;;29.60;44.17;97726.94;5072566;28;20277;-86
2023/08/05 04:06:25;;;;;;;;;;;;;;;30.58;41.37;97721.06;5072075;27;19964;-87
2023/08/05 04:08:54;;;;;;;;;;;;;;;31.31;39.15;97712.53;5072437;28;19923;-87
2023/08/05 04:11:20;;;;;;;;;;;;;;;31.16;38.90;97699.66;5072316;28;19921;-87
2023/08/05 04:13:47;;;;;;;;;;;;;;;30.41;40.34;97682.38;5072652;27;19917;-87
2023/08/05 04:16:16;;;;;;;;;;;;;;;29.49;41.96;97661.63;5071133;28;19927;-86
2023/08/05 04:18:43;;;;;;;;;;;;;;;28.69;44.57;97661.50;5072026;28;20377;-85
2023/08/05 04:21:10;;;;;;;;;;;;;;;27.80;46.88;97647.75;5071883;28;19961;-86
2023/08/05 04:23:36;;;;;;;;;;;;;;;28.14;45.83;97645.91;5072013;28;19916;-86
2023/08/05 04:26:05;;;;;;;;;;;;;;;29.11;43.68;97653.00;5071901;28;19950;-86
2023/08/05 04:28:31;;;;;;;;;;;;;;;29.30;42.88;97646.03;5078409;28;19922;-86
2023/08/05 04:30:58;;;;;;;;;;;;;;;29.00;44.08;97633.75;5059232;28;20005;-86
2023/08/05 04:33:27;;;;;;;;;;;;;;;28.42;45.19;97624.84;5071911;28;19917;-87
2023/08/05 04:35:54;;;;;;;;;;;;;;;28.28;45.58;97629.09;5071592;28;19917;-87
2023/08/05 04:38:20;;;;;;;;;;;;;;;28.75;44.31;97645.50;5071950;28;19917;-87
2023/08/05 04:40:46;;;;;;;;;;;;;;;29.39;42.37;97648.81;5053769;28;19975;-87
2023/08/05 04:43:13;;;;;;;;;;;;;;;28.71;44.69;97648.47;5071847;28;19920;-86
2023/08/05 04:45:39;;;;;;;;;;;;;;;27.67;46.62;97661.25;5073072;28;19927;-87
2023/08/05 04:48:05;;;;;;;;;;;;;;;28.20;45.69;97655.28;5075642;28;19917;-87
2023/08/05 04:50:31;;;;;;;;;;;;;;;29.03;43.04;97649.78;5071379;28;19923;-86
2023/08/05 04:52:57;;;;;;;;;;;;;;;27.90;46.41;97648.56;5071561;27;20010;-86
2023/08/05 04:55:23;;;;;;;;;;;;;;;27.43;48.29;97648.97;5071422;27;19920;-87
2023/08/05 04:57:52;;;;;;;;;;;;;;;27.98;46.30;97656.22;5071455;28;19960;-87
2023/08/05 05:00:19;;;;;;;;;;;;;;;28.82;44.11;97658.50;5071420;28;19939;-86
2023/08/05 05:02:45;;;;;;;;;;;;;;;29.53;42.12;97665.06;5071385;27;19923;-87
2023/08/05 05:05:11;;;;;;;;;;;;;;;29.90;41.06;97676.94;5071793;27;20384;-86
2023/08/05 05:07:37;;;;;;;;;;;;;;;29.43;42.11;97663.53;5071282;27;19969;-87
2023/08/05 05:10:03;;;;;;;;;;;;;;;27.42;48.75;97622.81;5071372;27;20023;-86
2023/08/05 05:12:29;;;;;;;;;;;;;;;26.48;51.46;97616.97;5071062;27;20023;-86
2023/08/05 05:14:55;;;;;;;;;;;;;;;26.57;51.40;97628.28;5053306;28;19960;-86
2023/08/05 05:17:21;;;;;;;;;;;;;;;28.24;46.42;97633.34;5071117;27;20011;-87
2023/08/05 05:19:47;;;;;;;;;;;;;;;28.45;45.66;97627.47;5070923;27;19955;-87
2023/08/05 05:22:17;;;;;;;;;;;;;;;29.43;42.58;97618.28;5071664;27;19924;-87
2023/08/05 05:24:44;;;;;;;;;;;;;;;28.91;43.32;97614.03;5071314;28;20320;-88
2023/08/05 05:27:13;;;;;;;;;;;;;;;29.02;43.24;97611.44;5070707;28;20395;-87
2023/08/05 05:29:39;;;;;;;;;;;;;;;29.79;41.54;97608.78;5086946;28;20384;-87
2023/08/05 05:32:06;;;;;;;;;;;;;;;30.25;40.46;97609.13;5091163;28;19916;-87
2023/08/05 05:34:32;;;;;;;;;;;;;;;29.79;40.93;97598.25;5090956;28;19916;-88
2023/08/05 05:36:58;;;;;;;;;;;;;;;29.56;42.23;97584.88;5091023;28;19976;-87
2023/08/05 05:39:24;;;;;;;;;;;;;;;30.18;40.43;97590.47;5072715;28;19916;-88
2023/08/05 05:41:50;;;;;;;;;;;;;;;30.42;39.90;97582.72;5070750;27;19925;-87
2023/08/05 05:44:16;;;;;;;;;;;;;;;30.38;40.22;97578.50;5070620;27;20296;-87
2023/08/05 05:46:43;;;;;;;;;;;;;;;29.82;41.16;97563.31;5070688;28;19920;-87
2023/08/05 05:49:12;;;;;;;;;;;;;;;28.42;45.20;97543.72;5070466;28;20386;-87
2023/08/05 05:51:38;;;;;;;;;;;;;;;26.58;50.91;97505.94;5070584;28;19913;-88
2023/08/05 05:54:04;;;;;;;;;;;;;;;25.18;58.19;97448.25;5070614;28;19925;-90
2023/08/05 05:56:32;;;;;;;;;;;;;;;24.68;60.50;97434.38;5071483;27;20012;-87
2023/08/05 05:58:58;;;;;;;;;;;;;;;24.90;62.47;97477.34;5070787;28;20290;-88
2023/08/05 06:01:24;;;;;;;;;;;;;;;26.09;54.44;97496.69;5070668;28;19916;-89
2023/08/05 06:03:51;;;;;;;;;;;;;;;25.32;57.69;97489.13;5070667;28;19913;-89
2023/08/05 06:06:17;;;;;;;;;;;;;;;25.94;56.14;97485.19;5070304;27;20373;-89
2023/08/05 06:08:43;;;;;;;;;;;;;;;26.69;53.17;97489.41;5052561;28;20301;-88
2023/08/05 06:11:10;;;;;;;;;;;;;;;25.36;58.40;97513.06;5070372;27;19920;-87
2023/08/05 06:13:36;;;;;;;;;;;;;;;26.36;53.91;97530.59;5090058;27;20015;-89
2023/08/05 06:16:02;;;;;;;;;;;;;;;28.61;45.34;97561.41;5078104;27;19924;-88
2023/08/05 06:18:28;;;;;;;;;;;;;;;30.29;40.75;97596.38;5082403;27;19921;-89
2023/08/05 06:20:54;;;;;;;;;;;;;;;30.94;39.52;97628.41;5197031;27;20339;-89
2023/08/05 06:23:21;;;;;;;;;;;;;;;31.64;37.90;97651.88;5114965;27;20003;-89
2023/08/05 06:25:47;;;;;;;;;;;;;;;31.99;37.15;97669.66;5090658;27;20376;-89
2023/08/05 06:28:14;;;;;;;;;;;;;;;32.15;36.43;97686.13;5086181;27;19999;-89
2023/08/05 06:30:43;;;;;;;;;;;;;;;32.28;36.14;97699.97;5070138;28;19923;-89
2023/08/05 06:33:09;;;;;;;;;;;;;;;32.30;36.23;97705.94;5070077;28;19917;-89
2023/08/05 06:35:35;;;;;;;;;;;;;;;31.95;36.76;97700.31;5088176;28;19955;-89
2023/08/05 06:38:01;;;;;;;;;;;;;;;32.14;36.33;97695.16;5090255;28;19916;-89
2023/08/05 06:40:27;;;;;;;;;;;;;;;32.17;36.11;97672.19;5092942;28;19916;-90
2023/08/05 06:42:53;;;;;;;;;;;;;;;32.09;36.39;97660.47;5090245;28;19969;-90
2023/08/05 06:45:19;;;;;;;;;;;;;;;31.86;37.42;97640.81;5074136;27;20083;-89
2023/08/05 06:47:45;;;;;;;;;;;;;;;31.70;37.33;97608.09;5073445;27;19957;-89
2023/08/05 06:50:11;;;;;;;;;;;;;;;29.82;41.96;97556.88;5073448;28;19924;-88
2023/08/05 06:52:37;;;;;;;;;;;;;;;26.38;57.62;97518.84;5073446;27;19913;-88
2023/08/05 06:55:04;;;;;;;;;;;;;;;25.86;59.75;97454.97;5073332;28;19916;-88
2023/08/05 06:57:33;;;;;;;;;;;;;;;24.97;64.11;97380.84;5073541;27;19917;-86
2023/08/05 06:59:59;;;;;;;;;;;;;;;25.17;64.12;97337.13;5073348;28;20395;-86
2023/08/05 07:02:25;;;;;;;;;;;;;;;25.77;59.46;97305.88;5073626;27;19916;-87
2023/08/05 07:04:52;;;;;;;;;;;;;;;25.34;62.39;97261.81;5073378;27;19913;-87
2023/08/05 07:07:18;;;;;;;;;;;;;;;25.65;61.70;97236.50;5073091;28;19916;-87
2023/08/05 07:09:44;;;;;;;;;;;;;;;25.98;60.61;97259.97;5073437;28;19931;-88
2023/08/05 07:12:10;;;;;;;;;;;;;;;25.63;61.92;97270.69;5073061;27;19924;-88
2023/08/05 07:14:36;;;;;;;;;;;;;;;26.71;57.84;97284.13;5073247;28;20288;-88
2023/08/05 07:17:02;;;;;;;;;;;;;;;27.24;52.09;97314.72;5072757;28;19959;-87
2023/08/05 07:19:28;;;;;;;;;;;;;;;26.67;58.89;97322.16;5075009;28;19925;-87
2023/08/05 07:21:54;;;;;;;;;;;;;;;27.58;50.65;97317.16;5093446;28;19924;-87
2023/08/05 07:24:20;;;;;;;;;;;;;;;27.58;50.32;97322.00;5093336;28;19935;-88
2023/08/05 07:26:46;;;;;;;;;;;;;;;29.09;45.54;97336.88;5093021;28;19917;-88
2023/08/05 07:29:12;;;;;;;;;;;;;;;28.42;47.13;97354.50;5080564;28;19920;-88
2023/08/05 07:31:38;;;;;;;;;;;;;;;28.49;47.81;97375.97;5072583;28;19923;-88
2023/08/05 07:34:04;;;;;;;;;;;;;;;28.47;47.74;97392.59;5072869;28;20025;-88
2023/08/05 07:36:31;;;;;;;;;;;;;;;28.44;46.71;97402.03;5073577;27;19920;-88
2023/08/05 07:38:59;;;;;;;;;;;;;;;29.00;45.25;97416.09;5073008;27;20445;-88
2023/08/05 07:41:26;;;;;;;;;;;;;;;29.11;43.83;97427.63;5072940;28;19942;-88
2023/08/05 07:43:57;;;;;;;;;;;;;;;29.33;43.34;97441.44;5072232;28;20023;-88
2023/08/05 07:46:25;;;;;;;;;;;;;;;29.13;43.72;97452.56;5072479;28;20354;-88
2023/08/05 07:48:52;;;;;;;;;;;;;;;28.81;47.03;97451.41;5072882;27;20011;-87
2023/08/05 07:51:19;;;;;;;;;;;;;;;29.22;44.00;97461.78;5072616;27;19917;-86
2023/08/05 07:53:47;;;;;;;;;;;;;;;29.42;43.49;97467.59;5076766;28;19938;-87
2023/08/05 07:56:13;;;;;;;;;;;;;;;28.93;45.67;97467.34;5091037;27;19928;-88
2023/08/05 07:58:42;;;;;;;;;;;;;;;29.62;42.43;97480.28;5092441;27;20361;-86
2023/08/05 08:01:08;;;;;;;;;;;;;;;28.41;47.74;97477.19;5092631;27;19922;-87
2023/08/05 08:03:34;;;;;;;;;;;;;;;29.12;44.12;97480.09;5092532;27;19958;-88
2023/08/05 08:06:00;;;;;;;;;;;;;;;28.57;46.33;97487.31;5092392;28;20019;-87
2023/08/05 08:08:26;;;;;;;;;;;;;;;29.30;44.35;97479.19;5092454;28;20292;-87
2023/08/05 08:10:53;;;;;;;;;;;;;;;28.63;46.72;97485.44;5086431;28;19921;-87
2023/08/05 08:13:19;;;;;;;;;;;;;;;29.16;44.30;97480.69;5071763;27;20349;-87
2023/08/05 08:15:45;;;;;;;;;;;;;;;27.74;51.67;97479.59;5072098;27;19916;-87
2023/08/05 08:18:11;;;;;;;;;;;;;;;27.72;50.37;97480.09;5072196;28;19912;-87
2023/08/05 08:20:37;;;;;;;;;;;;;;;28.52;45.91;97476.69;5084384;28;19923;-87
2023/08/05 08:23:03;;;;;;;;;;;;;;;28.43;49.14;97491.63;5092140;28;20281;-87
2023/08/05 08:25:29;;;;;;;;;;;;;;;27.78;51.29;97499.97;5092293;27;20008;-86
2023/08/05 08:27:55;;;;;;;;;;;;;;;29.31;44.43;97501.31;5085421;28;19988;-86
2023/08/05 08:30:21;;;;;;;;;;;;;;;28.75;45.47;97504.97;5054181;28;19924;-87
2023/08/05 08:32:47;;;;;;;;;;;;;;;29.55;42.85;97486.34;5054069;28;19924;-87
2023/08/05 08:35:13;;;;;;;;;;;;;;;29.80;43.35;97488.66;5054096;28;19924;-87
2023/08/05 08:37:39;;;;;;;;;;;;;;;29.73;42.85;97474.84;5054021;28;19924;-86
2023/08/05 08:40:05;;;;;;;;;;;;;;;28.81;45.83;97454.25;5071989;27;19917;-87
2023/08/05 08:42:31;;;;;;;;;;;;;;;27.63;50.24;97454.72;5071920;27;19963;-86
2023/08/05 08:45:00;;;;;;;;;;;;;;;28.96;45.50;97459.94;5077569;28;19969;-86
2023/08/05 08:47:26;;;;;;;;;;;;;;;28.54;46.30;97438.19;5092061;27;19951;-86
2023/08/05 08:49:52;;;;;;;;;;;;;;;28.74;46.23;97446.91;5091794;28;20537;-86
2023/08/05 08:52:19;;;;;;;;;;;;;;;30.28;42.67;97441.06;5092056;27;19952;-86
2023/08/05 08:54:45;;;;;;;;;;;;;;;30.26;45.75;97446.44;5091771;28;19958;-86
2023/08/05 08:57:13;;;;;;;;;;;;;;;29.68;46.44;97453.69;5070184;27;20408;-86
2023/08/05 08:59:39;;;;;;;;;;;;;;;30.10;43.51;97450.56;5071346;28;19917;-86
2023/08/05 09:02:12;;;;;;;;;;;;;;;30.87;40.99;97456.63;5071195;28;20285;-85
2023/08/05 09:04:40;;;;;;;;;;;;;;;31.62;39.59;97456.53;5071538;28;19943;-85
2023/08/05 09:07:08;;;;;;;;;;;;;;;30.55;42.95;97457.72;5071356;28;19916;-85
2023/08/05 09:09:34;;;;;;;;;;;;;;;28.75;47.37;97448.47;5071400;27;20024;-86
2023/08/05 09:12:01;;;;;;;;;;;;;;;29.01;47.51;97439.50;5070936;27;20405;-85
2023/08/05 09:14:27;;;;;;;;;;;;;;;28.59;50.69;97422.69;5071040;28;20373;-85
2023/08/05 09:16:59;;;;;;;;;;;;;;;28.66;50.41;97414.63;5071195;28;19920;-86
2023/08/05 09:19:26;;;;;;;;;;;;;;;28.36;54.54;97420.59;5074078;27;19916;-86
2023/08/05 09:21:53;;;;;;;;;;;;;;;29.58;46.53;97409.78;5091348;27;19916;-85
2023/08/05 09:24:23;;;;;;;;;;;;;;;29.11;48.05;97416.31;5091333;28;19916;-85
2023/08/05 09:26:56;;;;;;;;;;;;;;;28.74;50.90;97413.00;5090859;28;19916;-84
2023/08/05 09:29:23;;;;;;;;;;;;;;;28.56;55.08;97398.19;5091423;27;20336;-82
2023/08/05 09:31:56;;;;;;;;;;;;;;;29.57;53.56;97393.28;5091383;27;19916;-85
2023/08/05 09:34:30;;;;;;;;;;;;;;;27.83;59.29;97384.44;5091233;28;20274;-85
2023/08/05 09:36:56;;;;;;;;;;;;;;;27.89;64.10;97378.94;5076372;27;19923;-85
2023/08/05 09:39:23;;;;;;;;;;;;;;;27.79;60.09;97363.28;5052884;28;19916;-85
2023/08/05 09:41:52;;;;;;;;;;;;;;;28.43;61.91;97369.41;5070750;28;19924;-85
2023/08/05 09:44:18;;;;;;;;;;;;;;;28.25;61.76;97378.78;5070876;28;19916;-86
2023/08/05 09:46:45;;;;;;;;;;;;;;;28.72;62.08;97375.19;5070756;27;20018;-86
2023/08/05 09:49:14;;;;;;;;;;;;;;;28.61;57.00;97387.03;5070790;28;20422;-86
2023/08/05 09:51:45;;;;;;;;;;;;;;;28.81;61.28;97394.09;5070808;28;19923;-86
2023/08/05 09:54:13;;;;;;;;;;;;;;;30.02;47.79;97419.03;5053182;28;19917;-85
2023/08/05 09:56:40;;;;;;;;;;;;;;;31.07;46.90;97427.50;5070348;27;20065;-85
2023/08/05 09:59:12;;;;;;;;;;;;;;;31.38;46.61;97417.06;5089627;28;19960;-86
2023/08/05 10:01:39;;;;;;;;;;;;;;;31.23;44.24;97409.91;5090864;27;19923;-85
2023/08/05 10:04:06;;;;;;;;;;;;;;;31.70;43.71;97403.72;5090655;27;19919;-86
2023/08/05 10:06:36;;;;;;;;;;;;;;;31.55;43.75;97400.22;5090670;28;19974;-86
2023/08/05 10:09:02;;;;;;;;;;;;;;;31.11;48.93;97388.38;5090569;27;20031;-86
2023/08/05 10:11:28;;;;;;;;;;;;;;;30.26;53.86;97378.47;5071241;28;20003;-86
2023/08/05 10:13:56;;;;;;;;;;;;;;;30.77;47.46;97382.28;5070683;28;20288;-85
2023/08/05 10:16:23;;;;;;;;;;;;;;;30.39;47.31;97387.41;5074218;28;19920;-86
2023/08/05 10:18:49;;;;;;;;;;;;;;;31.93;43.69;97376.28;5074176;28;19916;-85
2023/08/05 10:21:37;;;;;;;;;;;;;;;32.68;42.41;97368.03;5074185;28;20254;-85
2023/08/05 10:24:04;;;;;;;;;;;;;;;32.58;41.98;97378.03;5073620;28;19924;-86
2023/08/05 10:26:45;;;;;;;;;;;;;;;33.31;43.15;97373.41;5076127;27;19980;-85
2023/08/05 10:29:27;;;;;;;;;;;;;;;33.76;39.00;97360.03;5094035;27;19923;-85
2023/08/05 10:32:09;;;;;;;;;;;;;;;32.84;43.33;97354.41;5094156;27;20011;-85
2023/08/05 10:34:35;;;;;;;;;;;;;;;32.55;45.05;97369.78;5075851;27;19920;-86
2023/08/05 10:37:01;;;;;;;;;;;;;;;33.43;42.39;97358.72;5093977;28;20444;-86
2023/08/05 10:39:39;;;;;;;;;;;;;;;32.37;50.49;97351.03;5093536;27;19957;-86
2023/08/05 10:42:17;;;;;;;;;;;;;;;32.56;45.11;97352.19;5094176;27;20304;-86
2023/08/05 10:44:43;;;;;;;;;;;;;;;32.10;47.30;97343.13;5080815;28;19918;-86
2023/08/05 10:47:09;;;;;;;;;;;;;;;32.18;46.32;97332.06;5073696;27;20039;-85
2023/08/05 10:49:36;;;;;;;;;;;;;;;33.55;43.02;97319.66;5073553;27;19934;-85
2023/08/05 10:52:02;;;;;;;;;;;;;;;33.54;45.16;97331.59;5073405;28;19916;-86
2023/08/05 10:54:31;;;;;;;;;;;;;;;33.34;41.23;97336.19;5055217;28;19925;-85
2023/08/05 10:56:57;;;;;;;;;;;;;;;33.28;42.10;97341.06;5073259;28;20292;-85
2023/08/05 10:59:23;;;;;;;;;;;;;;;32.70;45.21;97330.53;5073383;28;19920;-86
2023/08/05 11:01:56;;;;;;;;;;;;;;;32.91;43.57;97322.63;5074091;28;19923;-85
2023/08/05 11:04:26;;;;;;;;;;;;;;;32.22;45.51;97324.09;5073600;27;20273;-86
2023/08/05 11:06:53;;;;;;;;;;;;;;;33.16;41.55;97341.59;5072937;28;19916;-85
2023/08/05 11:09:19;;;;;;;;;;;;;;;32.89;47.03;97339.38;5088812;28;20037;-86
2023/08/05 11:11:48;;;;;;;;;;;;;;;33.33;39.96;97331.78;5093426;27;20019;-86
2023/08/05 11:14:18;;;;;;;;;;;;;;;33.02;41.34;97328.38;5078302;28;20004;-85
2023/08/05 11:16:45;;;;;;;;;;;;;;;33.89;40.68;97329.75;5073174;28;19924;-85
2023/08/05 11:19:12;;;;;;;;;;;;;;;33.39;40.81;97338.25;5073651;27;19917;-85
2023/08/05 11:21:43;;;;;;;;;;;;;;;33.89;40.78;97343.97;5072797;27;19916;-85
2023/08/05 11:24:15;;;;;;;;;;;;;;;33.37;40.17;97348.63;5073241;28;19916;-86
2023/08/05 11:26:41;;;;;;;;;;;;;;;33.54;39.18;97340.13;5072243;28;19917;-85
2023/08/05 11:29:08;;;;;;;;;;;;;;;33.74;42.03;97337.78;5073098;28;19996;-85
2023/08/05 11:31:34;;;;;;;;;;;;;;;32.84;41.65;97331.66;5072812;28;19917;-85
2023/08/05 11:34:00;;;;;;;;;;;;;;;32.63;44.72;97339.56;5072843;27;19923;-87
2023/08/05 11:36:27;;;;;;;;;;;;;;;31.66;50.54;97320.84;5073105;27;20270;-86
2023/08/05 11:38:57;;;;;;;;;;;;;;;30.96;46.75;97323.25;5073688;27;20448;-86
2023/08/05 11:41:26;;;;;;;;;;;;;;;30.66;53.52;97319.81;5076202;27;19976;-87
2023/08/05 11:43:56;;;;;;;;;;;;;;;30.16;58.66;97321.16;5158904;27;19919;-87
2023/08/05 11:46:25;;;;;;;;;;;;;;;30.75;48.60;97311.16;5153335;27;19916;-86
2023/08/05 11:49:10;;;;;;;;;;;;;;;30.69;50.67;97312.38;5092834;27;20396;-86
2023/08/05 11:52:04;;;;;;;;;;;;;;;29.57;55.99;97316.91;5087411;28;19916;-86
2023/08/05 11:54:34;;;;;;;;;;;;;;;29.39;61.14;97309.41;5070085;28;20333;-88
2023/08/05 11:57:00;;;;;;;;;;;;;;;29.50;50.77;97315.22;5072533;28;19916;-87
2023/08/05 11:59:36;;;;;;;;;;;;;;;30.24;55.07;97313.03;5072370;28;20400;-86
2023/08/05 12:02:02;;;;;;;;;;;;;;;30.49;50.34;97310.31;5072386;28;20402;-87
2023/08/05 12:04:28;;;;;;;;;;;;;;;30.81;47.98;97297.00;5072407;28;19917;-86
2023/08/05 12:06:54;;;;;;;;;;;;;;;31.76;45.21;97293.84;5071901;28;20399;-86
2023/08/05 12:09:20;;;;;;;;;;;;;;;30.83;54.61;97290.88;5072886;28;20373;-87
2023/08/05 12:11:46;;;;;;;;;;;;;;;31.33;43.83;97284.44;5072257;27;19930;-86
2023/08/05 12:14:12;;;;;;;;;;;;;;;30.99;46.18;97302.41;5072337;28;20346;-87
2023/08/05 12:16:38;;;;;;;;;;;;;;;31.30;46.35;97293.16;5072244;27;19916;-87
2023/08/05 12:19:04;;;;;;;;;;;;;;;31.37;46.55;97278.50;5072192;27;20284;-86
2023/08/05 12:21:30;;;;;;;;;;;;;;;31.48;46.51;97281.50;5072073;27;19916;-87
2023/08/05 12:23:56;;;;;;;;;;;;;;;31.90;43.88;97290.03;5072111;27;20374;-86
2023/08/05 12:26:26;;;;;;;;;;;;;;;31.66;43.73;97280.31;5072413;27;19917;-87
2023/08/05 12:28:52;;;;;;;;;;;;;;;32.49;41.92;97281.63;5071864;28;19923;-87
2023/08/05 12:31:18;;;;;;;;;;;;;;;32.80;41.52;97271.38;5071896;27;19916;-87
2023/08/05 12:33:44;;;;;;;;;;;;;;;32.87;43.05;97277.34;5071765;27;19917;-87
2023/08/05 12:36:10;;;;;;;;;;;;;;;31.04;45.59;97281.81;5071445;28;19917;-87
2023/08/05 12:38:36;;;;;;;;;;;;;;;31.04;46.87;97276.16;5071287;28;20385;-86
2023/08/05 12:41:02;;;;;;;;;;;;;;;32.15;42.48;97287.63;5071971;28;19924;-86
2023/08/05 12:43:28;;;;;;;;;;;;;;;32.02;42.62;97294.53;5082038;28;19960;-87
2023/08/05 12:45:54;;;;;;;;;;;;;;;30.96;47.14;97292.06;5073792;27;20343;-88